Aviation Digital Data Service (ADDS)

Output produced by METARs form (1529 UTC 19 January 2018)
found at http://aviationweather.gov/adds/metars/
 
KHKS 191130Z 1912/2012 VRB03KT P6SM BKN050 
     FM191400 17005KT P6SM FEW050 SCT080 SCT250